Aeroporto :
LOGIN :

Iscrizione | Disclaimer

   EN    FR    IT 

 










Sommario :    VFR   VFR Marginale   IFR   IFR Intensivo   IFR Molto Intensivo
Visibilità : 
Base nubi : 
>= 8 km
>= 3000ft
5 / 8 km
1000 / 3000 ft
1500m / 5 km
500 / 1000 ft
800 / 1500m
200 / 500 ft
< 800m
< 200 ft
Simboli :   Temporali  Nebbia  Neve Forte  Precipitazioni Forti  Vento > 20 kt
SIGMETs :   Varie  Temporali  Ghiacco  Turbolenza  Onda orograficha  Ceneri Vulcaniche






- Altitudine del aeroporto : 0 ft


ETEB - Ansbach Army Heliport

ULTIMO METAR :
  • 271241Z AUTO 25006KT 9999 SCT030 20/13 A3007 RMK AO2 SLP184 $

METARs OBSOLETI :
  • 271226Z AUTO 28008KT 9999 BKN029 21/13 A3007 RMK AO2 SLP184 $
  • 271156Z AUTO 20007KT 9999 FEW024 21/13 A3007 RMK AO2 SLP184 70008 T02060133 10206 20140 56005 $
  • 271141Z AUTO 22007KT 9999 SCT023 20/13 A3007 RMK AO2 SLP184 $
  • 271126Z AUTO 21004KT 9999 BKN023 19/14 A3008 RMK AO2 SLP189 $
  • 271056Z AUTO 22006KT 9999 FEW024 SCT044 18/14 A3008 RMK AO2 SLP189 T01830138 $
  • 270956Z AUTO 21005KT 9999 FEW018 SCT026 19/14 A3008 RMK AO2 SLP189 T01900140 $

TAF TAF ETEB
Valido dal 27 a 09 ore il 28 a 15 ore UTC


270900Z 2709/2815 26008KT 9999 SCT050 QNH3006INS
BECMG 2721/2722 24006KT 9999 SCT035 BKN050 QNH3011INS
BECMG 2801/2802 32005KT 5000 -SHRA BR BKN010 OVC015 QNH3012INS
BECMG 2806/2807 34008KT 9999 NSW SCT035 BKN080 QNH3008INS TX20/2715Z TN12/2803Z



MetMap, La meteo Aeronautica in un colpo d'occhio ! - Copyright ORBIFLY Dicembre 2007 - Disclaimer

ORBIFLY MET'MAP TEAM :

Programmazione e sviluppo : Alexandra Zaïnal
Concezione : Baudouin d'Aumeries
Aiuto per la programmazione : Marc-Olivier Méhu
Supporto tecnico e logistico : Manuel Goepfert
Aiuto per la traduzione : Arnaldo La Scala

Contatto : metmap@orbifly.com




FONTI E CREDITI :

   NOAA